sensor_id;sensor_type;location;lat;lon;timestamp;temperature;humidity
43561;DHT22;32305;46.410;17.394;2022-10-17T00:01:03;23.10;48.60
43561;DHT22;32305;46.410;17.394;2022-10-17T00:03:30;23.10;48.60
43561;DHT22;32305;46.410;17.394;2022-10-17T00:05:57;23.20;48.70
43561;DHT22;32305;46.410;17.394;2022-10-17T00:08:24;23.20;48.70
43561;DHT22;32305;46.410;17.394;2022-10-17T00:11:03;23.10;48.60
43561;DHT22;32305;46.410;17.394;2022-10-17T00:13:31;23.10;48.60
43561;DHT22;32305;46.410;17.394;2022-10-17T00:15:59;23.10;48.60
43561;DHT22;32305;46.410;17.394;2022-10-17T00:18:26;23.10;48.60
43561;DHT22;32305;46.410;17.394;2022-10-17T00:20:53;23.10;48.60
43561;DHT22;32305;46.410;17.394;2022-10-17T00:23:20;23.10;48.60
43561;DHT22;32305;46.410;17.394;2022-10-17T00:25:57;23.10;48.60
43561;DHT22;32305;46.410;17.394;2022-10-17T00:28:24;23.10;48.60
43561;DHT22;32305;46.410;17.394;2022-10-17T00:30:59;23.10;48.70
43561;DHT22;32305;46.410;17.394;2022-10-17T00:33:27;23.10;48.70
43561;DHT22;32305;46.410;17.394;2022-10-17T00:36:12;23.10;48.70
43561;DHT22;32305;46.410;17.394;2022-10-17T00:38:41;23.10;48.70
43561;DHT22;32305;46.410;17.394;2022-10-17T00:41:11;23.10;48.70
43561;DHT22;32305;46.410;17.394;2022-10-17T00:44:03;23.00;48.70
43561;DHT22;32305;46.410;17.394;2022-10-17T00:46:36;23.00;48.70
43561;DHT22;32305;46.410;17.394;2022-10-17T00:49:06;23.10;48.80
43561;DHT22;32305;46.410;17.394;2022-10-17T00:51:42;23.10;48.80
43561;DHT22;32305;46.410;17.394;2022-10-17T00:54:12;23.10;48.80
43561;DHT22;32305;46.410;17.394;2022-10-17T00:56:40;23.00;48.70
43561;DHT22;32305;46.410;17.394;2022-10-17T00:59:10;23.00;48.70
43561;DHT22;32305;46.410;17.394;2022-10-17T01:01:40;23.00;48.70
43561;DHT22;32305;46.410;17.394;2022-10-17T01:04:08;23.00;48.80
43561;DHT22;32305;46.410;17.394;2022-10-17T01:06:35;23.00;48.80
43561;DHT22;32305;46.410;17.394;2022-10-17T01:09:02;23.00;48.80
43561;DHT22;32305;46.410;17.394;2022-10-17T01:11:51;23.00;48.80
43561;DHT22;32305;46.410;17.394;2022-10-17T01:17:52;23.00;48.80
43561;DHT22;32305;46.410;17.394;2022-10-17T01:23:47;23.00;48.70
43561;DHT22;32305;46.410;17.394;2022-10-17T01:26:43;23.00;48.60
43561;DHT22;32305;46.410;17.394;2022-10-17T01:29:35;23.00;48.60
43561;DHT22;32305;46.410;17.394;2022-10-17T01:32:39;23.10;48.70
43561;DHT22;32305;46.410;17.394;2022-10-17T01:35:10;23.10;48.60
43561;DHT22;32305;46.410;17.394;2022-10-17T01:37:52;23.10;48.70
43561;DHT22;32305;46.410;17.394;2022-10-17T01:40:26;23.00;48.60
43561;DHT22;32305;46.410;17.394;2022-10-17T01:45:56;23.00;48.60
43561;DHT22;32305;46.410;17.394;2022-10-17T01:48:31;23.00;48.70
43561;DHT22;32305;46.410;17.394;2022-10-17T01:51:07;23.00;48.70
43561;DHT22;32305;46.410;17.394;2022-10-17T01:53:38;23.00;48.70
43561;DHT22;32305;46.410;17.394;2022-10-17T01:56:09;23.00;48.70
43561;DHT22;32305;46.410;17.394;2022-10-17T01:58:49;23.00;49.30
43561;DHT22;32305;46.410;17.394;2022-10-17T02:01:17;23.00;48.80
43561;DHT22;32305;46.410;17.394;2022-10-17T02:03:46;23.00;48.80
43561;DHT22;32305;46.410;17.394;2022-10-17T02:06:14;23.00;48.80
43561;DHT22;32305;46.410;17.394;2022-10-17T02:08:44;23.00;48.80
43561;DHT22;32305;46.410;17.394;2022-10-17T02:11:25;23.00;48.80
43561;DHT22;32305;46.410;17.394;2022-10-17T02:14:16;23.00;48.80
43561;DHT22;32305;46.410;17.394;2022-10-17T02:17:12;22.90;48.80
43561;DHT22;32305;46.410;17.394;2022-10-17T02:20:14;23.00;48.80
43561;DHT22;32305;46.410;17.394;2022-10-17T02:22:55;22.90;48.70
43561;DHT22;32305;46.410;17.394;2022-10-17T02:25:35;23.00;48.80
43561;DHT22;32305;46.410;17.394;2022-10-17T02:28:15;23.00;48.80
43561;DHT22;32305;46.410;17.394;2022-10-17T02:30:49;23.00;48.80
43561;DHT22;32305;46.410;17.394;2022-10-17T02:33:51;23.00;48.80
43561;DHT22;32305;46.410;17.394;2022-10-17T02:36:32;22.90;48.80
43561;DHT22;32305;46.410;17.394;2022-10-17T02:39:02;22.90;48.80
43561;DHT22;32305;46.410;17.394;2022-10-17T02:41:30;23.00;48.90
43561;DHT22;32305;46.410;17.394;2022-10-17T02:43:59;22.90;48.80
43561;DHT22;32305;46.410;17.394;2022-10-17T02:46:29;23.00;48.80
43561;DHT22;32305;46.410;17.394;2022-10-17T02:49:04;22.90;48.70
43561;DHT22;32305;46.410;17.394;2022-10-17T02:51:44;22.90;48.70
43561;DHT22;32305;46.410;17.394;2022-10-17T02:54:21;22.90;48.70
43561;DHT22;32305;46.410;17.394;2022-10-17T02:56:54;22.90;48.70
43561;DHT22;32305;46.410;17.394;2022-10-17T02:59:22;22.90;48.60
43561;DHT22;32305;46.410;17.394;2022-10-17T03:01:51;23.00;48.70
43561;DHT22;32305;46.410;17.394;2022-10-17T03:04:18;22.90;48.70
43561;DHT22;32305;46.410;17.394;2022-10-17T03:06:47;22.90;48.70
43561;DHT22;32305;46.410;17.394;2022-10-17T03:09:15;22.90;48.70
43561;DHT22;32305;46.410;17.394;2022-10-17T03:11:42;22.90;48.70
43561;DHT22;32305;46.410;17.394;2022-10-17T03:14:09;22.90;48.70
43561;DHT22;32305;46.410;17.394;2022-10-17T03:16:36;23.00;48.70
43561;DHT22;32305;46.410;17.394;2022-10-17T03:19:03;22.90;48.70
43561;DHT22;32305;46.410;17.394;2022-10-17T03:21:31;22.90;48.70
43561;DHT22;32305;46.410;17.394;2022-10-17T03:23:58;22.90;48.70
43561;DHT22;32305;46.410;17.394;2022-10-17T03:26:25;22.90;48.70
43561;DHT22;32305;46.410;17.394;2022-10-17T03:28:52;22.90;48.80
43561;DHT22;32305;46.410;17.394;2022-10-17T03:31:20;22.90;48.80
43561;DHT22;32305;46.410;17.394;2022-10-17T03:33:47;22.90;48.80
43561;DHT22;32305;46.410;17.394;2022-10-17T03:36:17;22.90;48.80
43561;DHT22;32305;46.410;17.394;2022-10-17T03:38:45;22.90;48.80
43561;DHT22;32305;46.410;17.394;2022-10-17T03:41:12;22.90;48.80
43561;DHT22;32305;46.410;17.394;2022-10-17T03:43:39;22.90;48.80
43561;DHT22;32305;46.410;17.394;2022-10-17T03:46:06;22.90;48.80
43561;DHT22;32305;46.410;17.394;2022-10-17T03:48:33;22.90;48.80
43561;DHT22;32305;46.410;17.394;2022-10-17T03:51:03;22.90;48.80
43561;DHT22;32305;46.410;17.394;2022-10-17T03:53:31;22.90;48.70
43561;DHT22;32305;46.410;17.394;2022-10-17T03:56:22;22.90;48.70
43561;DHT22;32305;46.410;17.394;2022-10-17T03:58:50;22.90;48.70
43561;DHT22;32305;46.410;17.394;2022-10-17T04:01:18;22.90;48.80
43561;DHT22;32305;46.410;17.394;2022-10-17T04:03:50;22.90;48.80
43561;DHT22;32305;46.410;17.394;2022-10-17T04:06:17;22.80;48.80
43561;DHT22;32305;46.410;17.394;2022-10-17T04:08:45;22.80;48.70
43561;DHT22;32305;46.410;17.394;2022-10-17T04:11:15;22.90;48.80
43561;DHT22;32305;46.410;17.394;2022-10-17T04:13:43;22.90;48.80
43561;DHT22;32305;46.410;17.394;2022-10-17T04:16:13;22.80;48.80
43561;DHT22;32305;46.410;17.394;2022-10-17T04:18:41;22.90;48.80
43561;DHT22;32305;46.410;17.394;2022-10-17T04:21:09;22.80;48.80
43561;DHT22;32305;46.410;17.394;2022-10-17T04:23:37;22.90;48.80
43561;DHT22;32305;46.410;17.394;2022-10-17T04:26:05;22.80;48.70
43561;DHT22;32305;46.410;17.394;2022-10-17T04:28:33;22.90;48.70
43561;DHT22;32305;46.410;17.394;2022-10-17T04:31:03;22.80;48.60
43561;DHT22;32305;46.410;17.394;2022-10-17T04:33:31;22.90;48.60
43561;DHT22;32305;46.410;17.394;2022-10-17T04:36:05;22.90;48.60
43561;DHT22;32305;46.410;17.394;2022-10-17T04:38:33;22.90;48.50
43561;DHT22;32305;46.410;17.394;2022-10-17T04:41:02;22.90;48.40
43561;DHT22;32305;46.410;17.394;2022-10-17T04:43:30;22.90;48.30
43561;DHT22;32305;46.410;17.394;2022-10-17T04:45:58;22.90;48.20
43561;DHT22;32305;46.410;17.394;2022-10-17T04:48:25;22.90;48.10
43561;DHT22;32305;46.410;17.394;2022-10-17T04:50:58;22.80;48.00
43561;DHT22;32305;46.410;17.394;2022-10-17T04:53:27;22.90;48.10
43561;DHT22;32305;46.410;17.394;2022-10-17T04:55:54;22.80;48.10
43561;DHT22;32305;46.410;17.394;2022-10-17T04:58:21;22.80;48.10
43561;DHT22;32305;46.410;17.394;2022-10-17T05:00:48;22.80;48.00
43561;DHT22;32305;46.410;17.394;2022-10-17T05:03:15;22.80;48.10
43561;DHT22;32305;46.410;17.394;2022-10-17T05:05:43;22.70;48.00
43561;DHT22;32305;46.410;17.394;2022-10-17T05:08:11;22.70;47.90
43561;DHT22;32305;46.410;17.394;2022-10-17T05:10:39;22.70;47.90
43561;DHT22;32305;46.410;17.394;2022-10-17T05:13:07;22.70;47.80
43561;DHT22;32305;46.410;17.394;2022-10-17T05:15:34;22.70;47.80
43561;DHT22;32305;46.410;17.394;2022-10-17T05:18:02;22.70;47.70
43561;DHT22;32305;46.410;17.394;2022-10-17T05:20:29;22.70;47.70
43561;DHT22;32305;46.410;17.394;2022-10-17T05:23:00;22.70;47.70
43561;DHT22;32305;46.410;17.394;2022-10-17T05:25:27;22.70;47.70
43561;DHT22;32305;46.410;17.394;2022-10-17T05:27:54;22.70;47.90
43561;DHT22;32305;46.410;17.394;2022-10-17T05:30:21;22.70;47.90
43561;DHT22;32305;46.410;17.394;2022-10-17T05:32:51;22.70;48.00
43561;DHT22;32305;46.410;17.394;2022-10-17T05:35:20;22.70;47.90
43561;DHT22;32305;46.410;17.394;2022-10-17T05:37:47;22.70;47.80
43561;DHT22;32305;46.410;17.394;2022-10-17T05:40:15;22.70;47.90
43561;DHT22;32305;46.410;17.394;2022-10-17T05:42:48;22.80;47.90
43561;DHT22;32305;46.410;17.394;2022-10-17T05:45:15;22.80;47.80
43561;DHT22;32305;46.410;17.394;2022-10-17T05:47:42;22.80;47.70
43561;DHT22;32305;46.410;17.394;2022-10-17T05:50:10;22.80;47.60
43561;DHT22;32305;46.410;17.394;2022-10-17T05:52:37;22.80;47.40
43561;DHT22;32305;46.410;17.394;2022-10-17T05:55:05;22.80;47.30
43561;DHT22;32305;46.410;17.394;2022-10-17T05:57:32;22.90;47.30
43561;DHT22;32305;46.410;17.394;2022-10-17T06:00:00;22.90;47.40
43561;DHT22;32305;46.410;17.394;2022-10-17T06:02:27;22.90;47.60
43561;DHT22;32305;46.410;17.394;2022-10-17T06:04:54;22.90;47.70
43561;DHT22;32305;46.410;17.394;2022-10-17T06:07:21;22.90;47.80
43561;DHT22;32305;46.410;17.394;2022-10-17T06:09:49;22.90;47.90
43561;DHT22;32305;46.410;17.394;2022-10-17T06:12:16;22.90;48.00
43561;DHT22;32305;46.410;17.394;2022-10-17T06:14:43;23.00;48.10
43561;DHT22;32305;46.410;17.394;2022-10-17T06:17:10;23.00;48.00
43561;DHT22;32305;46.410;17.394;2022-10-17T06:19:41;23.00;47.80
43561;DHT22;32305;46.410;17.394;2022-10-17T06:22:10;23.00;47.70
43561;DHT22;32305;46.410;17.394;2022-10-17T06:24:38;23.10;47.60
43561;DHT22;32305;46.410;17.394;2022-10-17T06:27:05;23.10;47.50
43561;DHT22;32305;46.410;17.394;2022-10-17T06:29:38;23.10;47.60
43561;DHT22;32305;46.410;17.394;2022-10-17T06:32:06;23.10;47.70
43561;DHT22;32305;46.410;17.394;2022-10-17T06:34:38;23.20;47.90
43561;DHT22;32305;46.410;17.394;2022-10-17T06:37:05;23.20;47.90
43561;DHT22;32305;46.410;17.394;2022-10-17T06:39:34;23.30;48.10
43561;DHT22;32305;46.410;17.394;2022-10-17T06:42:02;23.30;48.20
43561;DHT22;32305;46.410;17.394;2022-10-17T06:44:29;23.30;48.20
43561;DHT22;32305;46.410;17.394;2022-10-17T06:47:00;23.40;48.20
43561;DHT22;32305;46.410;17.394;2022-10-17T06:49:28;23.40;48.00
43561;DHT22;32305;46.410;17.394;2022-10-17T06:51:55;23.40;48.00
43561;DHT22;32305;46.410;17.394;2022-10-17T06:54:22;23.50;48.00
43561;DHT22;32305;46.410;17.394;2022-10-17T06:56:50;23.60;47.90
43561;DHT22;32305;46.410;17.394;2022-10-17T06:59:17;23.60;47.90
43561;DHT22;32305;46.410;17.394;2022-10-17T07:01:44;23.60;47.90
43561;DHT22;32305;46.410;17.394;2022-10-17T07:04:13;23.70;48.00
43561;DHT22;32305;46.410;17.394;2022-10-17T07:06:40;23.70;48.00
43561;DHT22;32305;46.410;17.394;2022-10-17T07:09:07;23.70;47.90
43561;DHT22;32305;46.410;17.394;2022-10-17T07:11:35;23.70;47.90
43561;DHT22;32305;46.410;17.394;2022-10-17T07:14:02;23.80;47.80
43561;DHT22;32305;46.410;17.394;2022-10-17T07:16:29;23.80;47.80
43561;DHT22;32305;46.410;17.394;2022-10-17T07:18:57;23.80;47.80
43561;DHT22;32305;46.410;17.394;2022-10-17T07:21:24;23.90;47.80
43561;DHT22;32305;46.410;17.394;2022-10-17T07:23:51;23.90;47.80
43561;DHT22;32305;46.410;17.394;2022-10-17T07:26:19;23.90;48.50
43561;DHT22;32305;46.410;17.394;2022-10-17T07:28:50;23.90;47.90
43561;DHT22;32305;46.410;17.394;2022-10-17T07:31:18;24.00;47.90
43561;DHT22;32305;46.410;17.394;2022-10-17T07:33:45;24.00;47.80
43561;DHT22;32305;46.410;17.394;2022-10-17T07:36:18;24.00;47.80
43561;DHT22;32305;46.410;17.394;2022-10-17T07:38:45;24.10;47.80
43561;DHT22;32305;46.410;17.394;2022-10-17T07:41:13;24.10;47.70
43561;DHT22;32305;46.410;17.394;2022-10-17T07:43:47;24.10;47.70
43561;DHT22;32305;46.410;17.394;2022-10-17T07:46:14;24.10;47.60
43561;DHT22;32305;46.410;17.394;2022-10-17T07:48:41;24.20;47.70
43561;DHT22;32305;46.410;17.394;2022-10-17T07:51:09;24.20;47.70
43561;DHT22;32305;46.410;17.394;2022-10-17T07:53:37;24.30;47.70
43561;DHT22;32305;46.410;17.394;2022-10-17T07:56:08;24.30;47.60
43561;DHT22;32305;46.410;17.394;2022-10-17T07:58:36;24.30;47.40
43561;DHT22;32305;46.410;17.394;2022-10-17T08:01:06;24.30;47.40
43561;DHT22;32305;46.410;17.394;2022-10-17T08:03:43;24.30;47.40
43561;DHT22;32305;46.410;17.394;2022-10-17T08:06:11;24.30;47.30
43561;DHT22;32305;46.410;17.394;2022-10-17T08:08:39;24.40;47.30
43561;DHT22;32305;46.410;17.394;2022-10-17T08:11:08;24.40;47.30
43561;DHT22;32305;46.410;17.394;2022-10-17T08:13:36;24.50;47.20
43561;DHT22;32305;46.410;17.394;2022-10-17T08:16:06;24.50;47.20
43561;DHT22;32305;46.410;17.394;2022-10-17T08:18:34;24.50;47.00
43561;DHT22;32305;46.410;17.394;2022-10-17T08:21:03;24.50;46.90
43561;DHT22;32305;46.410;17.394;2022-10-17T08:23:35;24.60;46.80
43561;DHT22;32305;46.410;17.394;2022-10-17T08:26:05;24.60;46.70
43561;DHT22;32305;46.410;17.394;2022-10-17T08:28:34;24.60;46.70
43561;DHT22;32305;46.410;17.394;2022-10-17T08:31:07;24.70;46.70
43561;DHT22;32305;46.410;17.394;2022-10-17T08:33:35;24.70;46.60
43561;DHT22;32305;46.410;17.394;2022-10-17T08:36:03;24.70;46.60
43561;DHT22;32305;46.410;17.394;2022-10-17T08:38:32;24.70;46.50
43561;DHT22;32305;46.410;17.394;2022-10-17T08:41:24;24.70;46.50
43561;DHT22;32305;46.410;17.394;2022-10-17T08:44:18;24.70;46.50
43561;DHT22;32305;46.410;17.394;2022-10-17T08:46:49;24.80;46.40
43561;DHT22;32305;46.410;17.394;2022-10-17T08:49:35;24.80;46.40
43561;DHT22;32305;46.410;17.394;2022-10-17T08:52:14;24.80;46.40
43561;DHT22;32305;46.410;17.394;2022-10-17T08:54:44;24.80;46.30
43561;DHT22;32305;46.410;17.394;2022-10-17T08:57:14;24.90;46.40
43561;DHT22;32305;46.410;17.394;2022-10-17T08:59:43;24.90;46.50
43561;DHT22;32305;46.410;17.394;2022-10-17T09:02:41;24.80;46.50
43561;DHT22;32305;46.410;17.394;2022-10-17T09:08:41;24.90;46.70
43561;DHT22;32305;46.410;17.394;2022-10-17T09:20:19;25.00;46.60
43561;DHT22;32305;46.410;17.394;2022-10-17T09:25:56;25.10;46.50
43561;DHT22;32305;46.410;17.394;2022-10-17T09:28:31;25.10;46.50
43561;DHT22;32305;46.410;17.394;2022-10-17T09:33:50;25.20;46.40
43561;DHT22;32305;46.410;17.394;2022-10-17T09:36:31;25.20;46.30
43561;DHT22;32305;46.410;17.394;2022-10-17T09:39:08;25.20;46.30
43561;DHT22;32305;46.410;17.394;2022-10-17T09:41:52;25.30;46.30
43561;DHT22;32305;46.410;17.394;2022-10-17T09:44:23;25.30;46.20
43561;DHT22;32305;46.410;17.394;2022-10-17T09:47:14;25.30;46.20
43561;DHT22;32305;46.410;17.394;2022-10-17T09:49:45;25.40;46.20
43561;DHT22;32305;46.410;17.394;2022-10-17T09:52:17;25.40;46.20
43561;DHT22;32305;46.410;17.394;2022-10-17T09:55:05;25.40;46.10
43561;DHT22;32305;46.410;17.394;2022-10-17T09:57:54;25.40;46.00
43561;DHT22;32305;46.410;17.394;2022-10-17T10:00:27;25.40;46.00
43561;DHT22;32305;46.410;17.394;2022-10-17T10:03:19;25.50;46.00
43561;DHT22;32305;46.410;17.394;2022-10-17T10:06:19;25.50;45.90
43561;DHT22;32305;46.410;17.394;2022-10-17T10:08:51;25.50;45.80
43561;DHT22;32305;46.410;17.394;2022-10-17T10:11:49;25.50;45.70
43561;DHT22;32305;46.410;17.394;2022-10-17T10:14:18;25.50;45.50
43561;DHT22;32305;46.410;17.394;2022-10-17T10:16:46;25.50;45.40
43561;DHT22;32305;46.410;17.394;2022-10-17T10:19:30;25.60;45.30
43561;DHT22;32305;46.410;17.394;2022-10-17T10:21:59;25.60;45.60
43561;DHT22;32305;46.410;17.394;2022-10-17T10:24:27;25.50;45.00
43561;DHT22;32305;46.410;17.394;2022-10-17T10:26:59;25.50;44.90
43561;DHT22;32305;46.410;17.394;2022-10-17T10:29:34;25.50;44.80
43561;DHT22;32305;46.410;17.394;2022-10-17T10:32:25;25.50;44.70
43561;DHT22;32305;46.410;17.394;2022-10-17T10:35:17;25.60;44.70
43561;DHT22;32305;46.410;17.394;2022-10-17T10:37:48;25.50;44.60
43561;DHT22;32305;46.410;17.394;2022-10-17T10:40:20;25.60;44.60
43561;DHT22;32305;46.410;17.394;2022-10-17T10:42:51;25.60;44.60
43561;DHT22;32305;46.410;17.394;2022-10-17T10:45:39;25.50;44.50
43561;DHT22;32305;46.410;17.394;2022-10-17T10:48:23;25.50;44.60
43561;DHT22;32305;46.410;17.394;2022-10-17T10:50:56;25.50;44.60
43561;DHT22;32305;46.410;17.394;2022-10-17T10:53:47;25.60;44.70
43561;DHT22;32305;46.410;17.394;2022-10-17T10:56:41;25.60;44.40
43561;DHT22;32305;46.410;17.394;2022-10-17T10:59:16;25.60;44.40
43561;DHT22;32305;46.410;17.394;2022-10-17T11:02:00;25.60;44.40
43561;DHT22;32305;46.410;17.394;2022-10-17T11:05:03;25.60;44.40
43561;DHT22;32305;46.410;17.394;2022-10-17T11:07:57;25.60;44.50
43561;DHT22;32305;46.410;17.394;2022-10-17T11:10:42;25.60;44.40
43561;DHT22;32305;46.410;17.394;2022-10-17T11:13:18;25.60;44.90
43561;DHT22;32305;46.410;17.394;2022-10-17T11:16:27;25.60;44.30
43561;DHT22;32305;46.410;17.394;2022-10-17T11:19:10;25.60;44.40
43561;DHT22;32305;46.410;17.394;2022-10-17T11:22:04;25.60;44.40
43561;DHT22;32305;46.410;17.394;2022-10-17T11:24:56;25.60;44.40
43561;DHT22;32305;46.410;17.394;2022-10-17T11:27:27;25.60;44.50
43561;DHT22;32305;46.410;17.394;2022-10-17T11:29:55;25.60;44.50
43561;DHT22;32305;46.410;17.394;2022-10-17T11:32:36;25.60;44.40
43561;DHT22;32305;46.410;17.394;2022-10-17T11:35:33;25.70;44.40
43561;DHT22;32305;46.410;17.394;2022-10-17T11:38:19;25.70;44.40
43561;DHT22;32305;46.410;17.394;2022-10-17T11:40:50;25.70;44.10
43561;DHT22;32305;46.410;17.394;2022-10-17T11:43:38;25.70;44.20
43561;DHT22;32305;46.410;17.394;2022-10-17T11:46:20;25.70;44.20
43561;DHT22;32305;46.410;17.394;2022-10-17T11:49:09;25.70;44.20
43561;DHT22;32305;46.410;17.394;2022-10-17T11:51:49;25.70;44.20
43561;DHT22;32305;46.410;17.394;2022-10-17T11:54:38;25.70;44.20
43561;DHT22;32305;46.410;17.394;2022-10-17T11:57:34;25.80;44.20
43561;DHT22;32305;46.410;17.394;2022-10-17T12:00:21;25.80;44.10
43561;DHT22;32305;46.410;17.394;2022-10-17T12:03:33;25.80;43.80
43561;DHT22;32305;46.410;17.394;2022-10-17T12:06:10;25.80;43.90
43561;DHT22;32305;46.410;17.394;2022-10-17T12:09:01;25.90;44.00
43561;DHT22;32305;46.410;17.394;2022-10-17T12:11:46;25.90;44.00
43561;DHT22;32305;46.410;17.394;2022-10-17T12:14:38;25.90;44.00
43561;DHT22;32305;46.410;17.394;2022-10-17T12:17:28;25.90;43.80
43561;DHT22;32305;46.410;17.394;2022-10-17T12:20:26;25.90;42.50
43561;DHT22;32305;46.410;17.394;2022-10-17T12:23:18;25.90;43.30
43561;DHT22;32305;46.410;17.394;2022-10-17T12:25:55;25.90;43.50
43561;DHT22;32305;46.410;17.394;2022-10-17T12:28:42;25.90;43.60
43561;DHT22;32305;46.410;17.394;2022-10-17T12:31:23;25.90;43.50
43561;DHT22;32305;46.410;17.394;2022-10-17T12:34:01;26.00;43.60
43561;DHT22;32305;46.410;17.394;2022-10-17T12:36:37;26.00;43.60
43561;DHT22;32305;46.410;17.394;2022-10-17T12:39:44;26.00;43.50
43561;DHT22;32305;46.410;17.394;2022-10-17T12:42:32;26.00;43.40
43561;DHT22;32305;46.410;17.394;2022-10-17T12:44:59;26.00;43.30
43561;DHT22;32305;46.410;17.394;2022-10-17T12:47:34;26.00;43.30
43561;DHT22;32305;46.410;17.394;2022-10-17T12:50:02;26.00;43.30
43561;DHT22;32305;46.410;17.394;2022-10-17T12:52:51;26.00;43.40
43561;DHT22;32305;46.410;17.394;2022-10-17T12:55:23;26.00;43.00
43561;DHT22;32305;46.410;17.394;2022-10-17T12:58:09;26.10;43.20
43561;DHT22;32305;46.410;17.394;2022-10-17T13:00:49;26.10;43.80
43561;DHT22;32305;46.410;17.394;2022-10-17T13:03:46;26.10;43.10
43561;DHT22;32305;46.410;17.394;2022-10-17T13:06:19;26.10;43.10
43561;DHT22;32305;46.410;17.394;2022-10-17T13:08:52;26.10;43.20
43561;DHT22;32305;46.410;17.394;2022-10-17T13:11:31;26.10;43.10
43561;DHT22;32305;46.410;17.394;2022-10-17T13:14:02;26.10;43.10
43561;DHT22;32305;46.410;17.394;2022-10-17T13:16:56;26.10;43.10
43561;DHT22;32305;46.410;17.394;2022-10-17T13:19:28;26.10;43.10
43561;DHT22;32305;46.410;17.394;2022-10-17T13:22:01;26.10;43.10
43561;DHT22;32305;46.410;17.394;2022-10-17T13:24:36;26.10;43.10
43561;DHT22;32305;46.410;17.394;2022-10-17T13:27:25;26.00;42.90
43561;DHT22;32305;46.410;17.394;2022-10-17T13:29:54;26.00;42.70
43561;DHT22;32305;46.410;17.394;2022-10-17T13:32:27;26.00;42.80
43561;DHT22;32305;46.410;17.394;2022-10-17T13:35:13;26.00;42.80
43561;DHT22;32305;46.410;17.394;2022-10-17T13:37:44;26.00;42.90
43561;DHT22;32305;46.410;17.394;2022-10-17T13:40:24;26.00;42.90
43561;DHT22;32305;46.410;17.394;2022-10-17T13:43:18;26.00;42.80
43561;DHT22;32305;46.410;17.394;2022-10-17T13:45:48;26.00;42.90
43561;DHT22;32305;46.410;17.394;2022-10-17T13:48:22;26.00;42.90
43561;DHT22;32305;46.410;17.394;2022-10-17T13:50:53;26.00;42.70
43561;DHT22;32305;46.410;17.394;2022-10-17T13:53:35;26.00;42.70
43561;DHT22;32305;46.410;17.394;2022-10-17T13:56:16;26.00;42.80
43561;DHT22;32305;46.410;17.394;2022-10-17T13:59:01;26.00;42.80
43561;DHT22;32305;46.410;17.394;2022-10-17T14:01:31;25.90;42.60
43561;DHT22;32305;46.410;17.394;2022-10-17T14:03:58;26.00;42.70
43561;DHT22;32305;46.410;17.394;2022-10-17T14:06:42;25.90;42.70
43561;DHT22;32305;46.410;17.394;2022-10-17T14:09:28;25.90;42.80
43561;DHT22;32305;46.410;17.394;2022-10-17T14:12:05;25.90;42.90
43561;DHT22;32305;46.410;17.394;2022-10-17T14:14:34;26.00;42.80
43561;DHT22;32305;46.410;17.394;2022-10-17T14:17:27;25.90;42.80
43561;DHT22;32305;46.410;17.394;2022-10-17T14:19:57;25.90;42.90
43561;DHT22;32305;46.410;17.394;2022-10-17T14:22:49;25.90;43.00
43561;DHT22;32305;46.410;17.394;2022-10-17T14:25:38;25.90;43.20
43561;DHT22;32305;46.410;17.394;2022-10-17T14:28:14;25.90;43.10
43561;DHT22;32305;46.410;17.394;2022-10-17T14:30:45;25.90;43.30
43561;DHT22;32305;46.410;17.394;2022-10-17T14:33:30;26.00;43.60
43561;DHT22;32305;46.410;17.394;2022-10-17T14:35:59;26.00;43.80
43561;DHT22;32305;46.410;17.394;2022-10-17T14:38:28;26.00;43.80
43561;DHT22;32305;46.410;17.394;2022-10-17T14:40:59;26.00;43.60
43561;DHT22;32305;46.410;17.394;2022-10-17T14:44:05;26.00;44.00
43561;DHT22;32305;46.410;17.394;2022-10-17T14:46:36;26.00;43.60
43561;DHT22;32305;46.410;17.394;2022-10-17T14:49:07;26.00;43.60
43561;DHT22;32305;46.410;17.394;2022-10-17T14:52:22;26.00;43.60
43561;DHT22;32305;46.410;17.394;2022-10-17T14:54:50;25.90;43.40
43561;DHT22;32305;46.410;17.394;2022-10-17T14:57:41;25.90;43.60
43561;DHT22;32305;46.410;17.394;2022-10-17T15:00:13;25.90;43.60
43561;DHT22;32305;46.410;17.394;2022-10-17T15:02:42;25.90;43.60
43561;DHT22;32305;46.410;17.394;2022-10-17T15:05:09;25.80;43.50
43561;DHT22;32305;46.410;17.394;2022-10-17T15:07:39;25.80;43.70
43561;DHT22;32305;46.410;17.394;2022-10-17T15:10:21;25.80;44.00
43561;DHT22;32305;46.410;17.394;2022-10-17T15:12:48;25.80;44.30
43561;DHT22;32305;46.410;17.394;2022-10-17T15:15:30;25.80;44.60
43561;DHT22;32305;46.410;17.394;2022-10-17T15:17:58;25.70;44.80
43561;DHT22;32305;46.410;17.394;2022-10-17T15:20:26;25.70;45.10
43561;DHT22;32305;46.410;17.394;2022-10-17T15:22:58;25.70;45.40
43561;DHT22;32305;46.410;17.394;2022-10-17T15:25:27;25.70;45.60
43561;DHT22;32305;46.410;17.394;2022-10-17T15:27:55;25.70;45.80
43561;DHT22;32305;46.410;17.394;2022-10-17T15:30:25;25.70;46.00
43561;DHT22;32305;46.410;17.394;2022-10-17T15:32:52;25.70;46.00
43561;DHT22;32305;46.410;17.394;2022-10-17T15:35:20;25.60;46.00
43561;DHT22;32305;46.410;17.394;2022-10-17T15:37:48;25.60;46.00
43561;DHT22;32305;46.410;17.394;2022-10-17T15:40:18;25.60;46.00
43561;DHT22;32305;46.410;17.394;2022-10-17T15:42:45;25.50;45.90
43561;DHT22;32305;46.410;17.394;2022-10-17T15:45:15;25.50;45.90
43561;DHT22;32305;46.410;17.394;2022-10-17T15:47:48;25.50;46.00
43561;DHT22;32305;46.410;17.394;2022-10-17T15:50:16;25.50;46.10
43561;DHT22;32305;46.410;17.394;2022-10-17T15:52:43;25.40;46.00
43561;DHT22;32305;46.410;17.394;2022-10-17T15:55:12;25.50;46.10
43561;DHT22;32305;46.410;17.394;2022-10-17T15:57:41;25.40;46.10
43561;DHT22;32305;46.410;17.394;2022-10-17T16:00:21;25.40;46.10
43561;DHT22;32305;46.410;17.394;2022-10-17T16:02:49;25.40;46.20
43561;DHT22;32305;46.410;17.394;2022-10-17T16:05:22;25.40;46.30
43561;DHT22;32305;46.410;17.394;2022-10-17T16:07:49;25.30;46.30
43561;DHT22;32305;46.410;17.394;2022-10-17T16:10:16;25.30;46.40
43561;DHT22;32305;46.410;17.394;2022-10-17T16:12:44;25.30;46.30
43561;DHT22;32305;46.410;17.394;2022-10-17T16:15:14;25.20;46.30
43561;DHT22;32305;46.410;17.394;2022-10-17T16:17:41;25.20;46.40
43561;DHT22;32305;46.410;17.394;2022-10-17T16:20:10;25.20;46.80
43561;DHT22;32305;46.410;17.394;2022-10-17T16:22:38;25.10;46.90
43561;DHT22;32305;46.410;17.394;2022-10-17T16:25:24;25.10;47.00
43561;DHT22;32305;46.410;17.394;2022-10-17T16:27:53;25.10;47.10